Vernonia, Oregon
Current Conditions -  °F | °C
As of 10:25 AM on Thursday 29 Jan 2015 (Local Time) from KSPB Reporting Station
Haze Haze  
Wind Chill: 45°   Ceiling: 100
Heat Index: 45°   Visibility: 1mi
Dew Point: 43°   Wind: 3mph
Humidity: 93%   Direction: 70°ENE
Pressure: 30.33"   Gusts: NA
Location:  45.86°N, 123.19°W
Report Text: KSPB 291825Z AUTO 07003KT 1SM BR OVC001 07/06 A3033 RMK AO2 T00720061
Loading
Personal Weather Stations






























Interactive Weather Map New forecast layout! Learn more

10-Day Weather Forecast

Advertisements
Track Severe Weather on mobile